Time;durP1;ratioP1;P1;durP2;ratioP2;P2;SDS_P1;SDS_P2;PMS_P1;PMS_P2;Temp;Humidity;BMP_temperature;BMP_pressure;BME280_temperature;BME280_humidity;BME280_pressure;Samples;Min_cycle;Max_cycle;Signal;HPM_P1;HPM_P2
2024/02/15 00:01:30;;;;;;;1.27;1.17;;;10.50;99.90;;;;;;5048469;28;20735;-76
2024/02/15 00:03:57;;;;;;;2.03;1.33;;;10.30;99.90;;;;;;5048922;28;21194;-76
2024/02/15 00:06:26;;;;;;;3.03;1.80;;;10.50;99.90;;;;;;5049904;28;21165;-76
2024/02/15 00:08:53;;;;;;;1.63;1.53;;;10.30;99.90;;;;;;5047923;28;20634;-76
2024/02/15 00:11:20;;;;;;;1.80;1.70;;;;;;;;;;5048641;28;20974;-76
2024/02/15 00:13:46;;;;;;;1.03;0.93;;;10.30;99.90;;;;;;5042777;28;21263;-76
2024/02/15 00:16:14;;;;;;;1.50;1.40;;;10.20;99.90;;;;;;5048264;28;20666;-76
2024/02/15 00:18:41;;;;;;;2.17;1.90;;;10.30;99.90;;;;;;5045855;28;20634;-76
2024/02/15 00:21:08;;;;;;;1.87;1.77;;;10.20;99.90;;;;;;5044813;28;20990;-76
2024/02/15 00:23:36;;;;;;;1.57;1.47;;;10.60;99.90;;;;;;5048815;28;20626;-76
2024/02/15 00:26:03;;;;;;;1.23;1.17;;;10.90;99.90;;;;;;5049314;28;21384;-76
2024/02/15 00:28:30;;;;;;;2.13;1.60;;;9.70;99.90;;;;;;5049859;28;20640;-76
2024/02/15 00:30:57;;;;;;;2.00;1.50;;;10.40;99.90;;;;;;5049233;28;20635;-76
2024/02/15 00:33:24;;;;;;;1.70;1.40;;;;;;;;;;5046818;28;20622;-77
2024/02/15 00:35:51;;;;;;;2.27;1.47;;;10.40;99.90;;;;;;5049547;28;20666;-77
2024/02/15 00:38:18;;;;;;;3.70;1.70;;;10.40;99.90;;;;;;5041755;28;20733;-77
2024/02/15 00:40:47;;;;;;;1.43;1.10;;;10.30;99.90;;;;;;5046661;28;20641;-77
2024/02/15 00:43:13;;;;;;;2.43;2.03;;;10.40;99.90;;;;;;5047992;28;20626;-76
2024/02/15 00:45:41;;;;;;;2.70;1.53;;;10.40;99.90;;;;;;5049755;28;20641;-76
2024/02/15 00:48:08;;;;;;;2.97;1.80;;;10.40;99.90;;;;;;5047927;28;21218;-76
2024/02/15 00:50:35;;;;;;;1.50;1.40;;;9.90;99.90;;;;;;5048306;28;20761;-77
2024/02/15 00:53:01;;;;;;;1.40;1.30;;;10.40;99.90;;;;;;5043546;28;20622;-76
2024/02/15 00:55:28;;;;;;;2.10;1.50;;;10.40;99.90;;;;;;5035160;28;20668;-77
2024/02/15 00:57:57;;;;;;;1.97;1.63;;;10.30;99.90;;;;;;5046122;28;20696;-77
2024/02/15 01:00:24;;;;;;;2.33;1.60;;;10.40;99.90;;;;;;5047320;28;20637;-77
2024/02/15 01:02:51;;;;;;;1.80;1.70;;;10.40;99.90;;;;;;5047527;28;20638;-76
2024/02/15 01:05:18;;;;;;;1.47;1.37;;;10.30;99.90;;;;;;5040325;28;20630;-77
2024/02/15 01:07:45;;;;;;;2.10;1.90;;;10.30;99.90;;;;;;5048715;28;20652;-75
2024/02/15 01:10:12;;;;;;;2.27;1.93;;;10.40;99.90;;;;;;5046979;28;20642;-77
2024/02/15 01:12:39;;;;;;;1.90;1.70;;;;;;;;;;5046392;28;20642;-77
2024/02/15 01:15:08;;;;;;;1.90;1.80;;;10.20;99.90;;;;;;5048912;28;20733;-76
2024/02/15 01:17:35;;;;;;;3.53;2.43;;;10.20;99.90;;;;;;5048844;28;21249;-77
2024/02/15 01:20:02;;;;;;;2.77;1.70;;;10.10;99.90;;;;;;5048322;28;20745;-76
2024/02/15 01:22:28;;;;;;;1.90;1.80;;;10.00;99.90;;;;;;5048582;28;20637;-76
2024/02/15 01:24:56;;;;;;;2.33;1.80;;;10.00;99.90;;;;;;5048446;28;20688;-76
2024/02/15 01:27:23;;;;;;;2.43;1.80;;;10.00;99.90;;;;;;5048539;28;20741;-76
2024/02/15 01:29:50;;;;;;;3.13;1.90;;;10.30;99.90;;;;;;5048761;28;20638;-76
2024/02/15 01:32:18;;;;;;;1.80;1.70;;;10.20;99.90;;;;;;5047271;28;20726;-76
2024/02/15 01:34:45;;;;;;;1.90;1.70;;;10.30;99.90;;;;;;5048350;28;20633;-76
2024/02/15 01:37:11;;;;;;;1.43;1.33;;;10.60;99.90;;;;;;5048815;28;20677;-76
2024/02/15 01:39:37;;;;;;;4.67;1.77;;;9.90;99.90;;;;;;5048268;28;20738;-76
2024/02/15 01:42:05;;;;;;;7.83;1.73;;;10.00;99.90;;;;;;5048814;28;20929;-76
2024/02/15 01:44:31;;;;;;;1.63;1.50;;;9.80;99.90;;;;;;5048089;28;20207;-76
2024/02/15 01:46:59;;;;;;;1.60;1.50;;;10.10;99.90;;;;;;5048391;28;20657;-76
2024/02/15 01:49:29;;;;;;;1.60;1.43;;;9.80;99.90;;;;;;5048666;28;20621;-76
2024/02/15 01:51:57;;;;;;;4.87;2.10;;;9.80;99.90;;;;;;5048167;28;21005;-76
2024/02/15 01:54:25;;;;;;;2.37;2.07;;;9.80;99.90;;;;;;5047277;28;20728;-76
2024/02/15 01:56:52;;;;;;;3.37;1.93;;;;;;;;;;5048066;28;20670;-76
2024/02/15 01:59:19;;;;;;;3.37;1.80;;;;;;;;;;5048166;28;21111;-76
2024/02/15 02:01:46;;;;;;;4.97;1.97;;;9.70;99.90;;;;;;5047064;28;20637;-76
2024/02/15 02:04:13;;;;;;;1.40;1.30;;;9.60;99.90;;;;;;5047418;28;20759;-76
2024/02/15 02:06:41;;;;;;;1.83;1.50;;;9.80;99.90;;;;;;5047544;28;20638;-76
2024/02/15 02:09:14;;;;;;;1.60;1.50;;;9.40;99.90;;;;;;5047793;28;20629;-76
2024/02/15 02:11:41;;;;;;;2.07;1.93;;;9.60;99.90;;;;;;5040156;28;20643;-76
2024/02/15 02:14:08;;;;;;;2.00;1.27;;;9.60;99.90;;;;;;5041480;28;21022;-76
2024/02/15 02:16:35;;;;;;;2.27;1.73;;;9.80;99.90;;;;;;5045945;28;20669;-76
2024/02/15 02:19:08;;;;;;;1.77;1.17;;;;;;;;;;5047699;28;20626;-77
2024/02/15 02:21:39;;;;;;;2.20;1.43;;;9.30;99.90;;;;;;5048015;28;20641;-77
2024/02/15 02:24:13;;;;;;;2.50;1.60;;;8.90;99.90;;;;;;5043865;28;20694;-76
2024/02/15 02:26:43;;;;;;;1.83;1.67;;;9.00;99.90;;;;;;5042451;28;20643;-76
2024/02/15 02:29:11;;;;;;;1.87;1.70;;;9.10;99.90;;;;;;5047134;28;21004;-76
2024/02/15 02:31:40;;;;;;;2.00;1.73;;;;;;;;;;5047039;28;20632;-76
2024/02/15 02:34:09;;;;;;;2.57;2.00;;;;;;;;;;5046368;28;20631;-76
2024/02/15 02:36:37;;;;;;;4.27;2.07;;;8.90;99.90;;;;;;5041608;28;20665;-76
2024/02/15 02:39:07;;;;;;;2.50;2.30;;;8.80;99.90;;;;;;5041224;28;20704;-76
2024/02/15 02:41:35;;;;;;;2.20;1.83;;;8.60;99.90;;;;;;5046903;28;20667;-77
2024/02/15 02:44:04;;;;;;;2.13;1.67;;;8.70;99.90;;;;;;5038705;28;20980;-76
2024/02/15 02:46:32;;;;;;;4.43;1.93;;;9.20;99.90;;;;;;5046881;28;20635;-76
2024/02/15 02:49:00;;;;;;;2.17;1.97;;;8.40;99.90;;;;;;5047454;28;20731;-76
2024/02/15 02:51:28;;;;;;;1.90;1.80;;;8.00;99.90;;;;;;5037472;28;20719;-76
2024/02/15 02:53:55;;;;;;;1.80;1.70;;;8.20;99.90;;;;;;5045964;28;21006;-76
2024/02/15 02:56:24;;;;;;;4.13;2.07;;;8.20;99.90;;;;;;5042706;28;20691;-76
2024/02/15 02:58:52;;;;;;;2.63;2.43;;;;;;;;;;5046823;28;20632;-76
2024/02/15 03:01:23;;;;;;;1.57;1.47;;;8.30;99.90;;;;;;5047037;28;20984;-76
2024/02/15 03:03:50;;;;;;;1.97;1.77;;;8.50;99.90;;;;;;5041818;28;20635;-76
2024/02/15 03:06:17;;;;;;;2.60;2.40;;;8.20;99.90;;;;;;5043179;28;21209;-76
2024/02/15 03:08:44;;;;;;;3.93;2.37;;;;;;;;;;5043323;28;20638;-76
2024/02/15 03:11:14;;;;;;;2.87;1.43;;;8.90;99.90;;;;;;5046431;28;20733;-76
2024/02/15 03:13:44;;;;;;;5.33;2.20;;;;;;;;;;5041020;28;21348;-76
2024/02/15 03:16:12;;;;;;;2.07;1.80;;;8.10;99.90;;;;;;5046639;28;21132;-76
2024/02/15 03:18:41;;;;;;;2.10;2.00;;;8.10;99.90;;;;;;5046008;28;20708;-76
2024/02/15 03:21:10;;;;;;;2.07;1.83;;;7.70;99.90;;;;;;5046648;28;21006;-76
2024/02/15 03:23:37;;;;;;;2.20;1.90;;;;;;;;;;5042729;28;20624;-76
2024/02/15 03:26:09;;;;;;;1.87;1.67;;;7.80;99.90;;;;;;5040853;28;21374;-76
2024/02/15 03:28:36;;;;;;;2.10;1.47;;;7.70;99.90;;;;;;5041703;28;20735;-77
2024/02/15 03:31:04;;;;;;;2.33;1.90;;;7.50;99.90;;;;;;5041930;28;21054;-76
2024/02/15 03:33:34;;;;;;;2.50;1.83;;;8.40;99.90;;;;;;5046101;28;20630;-77
2024/02/15 03:36:04;;;;;;;2.37;1.87;;;7.60;99.90;;;;;;5043016;28;20633;-76
2024/02/15 03:38:32;;;;;;;4.27;1.70;;;7.80;99.90;;;;;;5046527;28;20688;-76
2024/02/15 03:41:00;;;;;;;1.73;1.60;;;7.50;99.90;;;;;;5045057;28;20696;-76
2024/02/15 03:43:27;;;;;;;3.47;2.40;;;;;;;;;;5043412;28;20726;-76
2024/02/15 03:45:54;;;;;;;2.00;1.80;;;;;;;;;;5040019;28;20712;-76
2024/02/15 03:48:21;;;;;;;2.03;1.80;;;;;;;;;;5046670;28;20982;-76
2024/02/15 03:50:48;;;;;;;3.20;2.07;;;;;;;;;;5045300;28;20634;-77
2024/02/15 03:53:16;;;;;;;1.83;1.73;;;7.70;99.90;;;;;;5045813;28;20669;-76
2024/02/15 03:55:43;;;;;;;3.20;1.67;;;7.60;99.90;;;;;;5045814;28;21258;-76
2024/02/15 03:58:12;;;;;;;2.20;2.00;;;;;;;;;;5042860;28;20670;-76
2024/02/15 04:00:40;;;;;;;1.93;1.83;;;;;;;;;;5044166;28;20623;-76
2024/02/15 04:03:07;;;;;;;3.63;2.17;;;;;;;;;;5043235;28;21219;-76
2024/02/15 04:05:34;;;;;;;3.03;2.07;;;;;;;;;;5044870;28;20650;-76
2024/02/15 04:08:02;;;;;;;2.27;1.67;;;7.60;99.90;;;;;;5046081;28;21183;-76
2024/02/15 04:10:31;;;;;;;5.10;1.93;;;7.80;99.90;;;;;;5049822;28;20641;-76
2024/02/15 04:12:58;;;;;;;1.83;1.67;;;;;;;;;;5046668;28;20622;-76
2024/02/15 04:15:26;;;;;;;2.10;1.50;;;;;;;;;;5046504;28;20657;-76
2024/02/15 04:17:55;;;;;;;1.90;1.60;;;;;;;;;;5049380;28;21124;-76
2024/02/15 04:20:23;;;;;;;4.37;2.40;;;8.00;99.90;;;;;;5047367;28;20626;-76
2024/02/15 04:22:50;;;;;;;2.57;2.10;;;;;;;;;;5040464;28;20628;-76
2024/02/15 04:25:18;;;;;;;2.10;1.83;;;;;;;;;;5046115;28;20634;-76
2024/02/15 04:27:47;;;;;;;3.93;2.30;;;8.20;99.90;;;;;;5047971;28;20646;-76
2024/02/15 04:30:15;;;;;;;2.40;2.20;;;;;;;;;;5046016;28;20638;-76
2024/02/15 04:32:42;;;;;;;3.03;1.83;;;;;;;;;;5047152;28;20630;-76
2024/02/15 04:35:09;;;;;;;5.10;2.13;;;9.20;99.90;;;;;;5046944;28;20967;-76
2024/02/15 04:37:37;;;;;;;4.13;2.73;;;;;;;;;;5048683;28;20755;-76
2024/02/15 04:40:08;;;;;;;3.60;1.93;;;8.20;99.90;;;;;;5047484;28;20641;-76
2024/02/15 04:42:37;;;;;;;2.37;2.27;;;8.50;99.90;;;;;;5053784;28;20640;-76
2024/02/15 04:45:08;;;;;;;3.93;3.73;;;8.30;99.90;;;;;;5047779;28;20627;-76
2024/02/15 04:47:35;;;;;;;3.37;2.77;;;8.20;99.90;;;;;;5049458;28;20622;-76
2024/02/15 04:50:03;;;;;;;2.17;1.97;;;;;;;;;;5050608;28;20938;-76
2024/02/15 04:52:30;;;;;;;2.70;2.50;;;;;;;;;;5050503;28;20726;-75
2024/02/15 04:54:58;;;;;;;2.67;2.50;;;;;;;;;;5046632;28;21139;-75
2024/02/15 04:57:27;;;;;;;2.83;2.63;;;;;;;;;;5048255;28;20761;-76
2024/02/15 04:59:55;;;;;;;3.37;3.07;;;;;;;;;;5046833;28;20664;-76
2024/02/15 05:02:24;;;;;;;3.10;2.90;;;8.50;99.90;;;;;;5045439;28;20728;-76
2024/02/15 05:04:55;;;;;;;2.60;2.40;;;;;;;;;;5044777;28;20631;-76
2024/02/15 05:07:22;;;;;;;2.40;2.20;;;;;;;;;;5041281;28;20697;-75
2024/02/15 05:09:52;;;;;;;2.90;2.60;;;;;;;;;;5043082;28;20634;-76
2024/02/15 05:12:24;;;;;;;8.73;3.03;;;8.50;99.90;;;;;;5045676;28;21176;-76
2024/02/15 05:14:53;;;;;;;2.47;2.27;;;;;;;;;;5045478;28;20639;-76
2024/02/15 05:17:20;;;;;;;2.80;2.53;;;8.30;99.90;;;;;;5046662;28;21087;-76
2024/02/15 05:19:50;;;;;;;2.60;2.40;;;8.60;99.90;;;;;;5048026;28;20641;-76
2024/02/15 05:22:18;;;;;;;2.63;2.43;;;;;;;;;;5048575;28;20629;-75
2024/02/15 05:24:45;;;;;;;1.93;1.73;;;8.70;99.90;;;;;;5042495;28;20638;-75
2024/02/15 05:27:12;;;;;;;1.93;1.83;;;;;;;;;;5047576;28;20749;-76
2024/02/15 05:29:41;;;;;;;3.50;2.50;;;8.40;99.90;;;;;;5048457;28;20673;-75
2024/02/15 05:32:09;;;;;;;2.20;1.90;;;;;;;;;;5044409;28;20631;-75
2024/02/15 05:34:39;;;;;;;2.43;1.67;;;8.70;99.90;;;;;;5048049;28;20641;-75
2024/02/15 05:37:07;;;;;;;2.43;1.60;;;;;;;;;;5041231;28;21276;-75
2024/02/15 05:39:35;;;;;;;1.80;1.70;;;;;;;;;;5047385;28;20735;-75
2024/02/15 05:42:02;;;;;;;2.27;2.17;;;;;;;;;;5042006;28;20681;-75
2024/02/15 05:44:29;;;;;;;3.63;1.83;;;;;;;;;;5044931;28;20670;-75
2024/02/15 05:46:56;;;;;;;2.63;2.13;;;;;;;;;;5047744;28;21206;-75
2024/02/15 05:49:23;;;;;;;2.27;2.17;;;;;;;;;;5049226;28;20731;-75
2024/02/15 05:51:53;;;;;;;2.40;2.20;;;;;;;;;;5048547;28;20628;-75
2024/02/15 05:54:22;;;;;;;2.40;2.20;;;8.40;99.90;;;;;;5047840;28;20636;-75
2024/02/15 05:56:51;;;;;;;2.20;2.00;;;;;;;;;;5046975;28;20651;-77
2024/02/15 05:59:20;;;;;;;2.30;1.77;;;;;;;;;;5048011;28;20634;-72
2024/02/15 06:01:48;;;;;;;5.40;1.90;;;;;;;;;;5048527;28;20638;-72
2024/02/15 06:04:16;;;;;;;6.40;1.97;;;;;;;;;;5046149;28;20662;-72
2024/02/15 06:06:43;;;;;;;3.00;2.20;;;;;;;;;;5047251;28;20654;-72
2024/02/15 06:09:10;;;;;;;2.03;1.80;;;;;;;;;;5046708;28;20680;-74
2024/02/15 06:11:39;;;;;;;3.10;2.10;;;8.40;99.90;;;;;;5046319;28;20718;-73
2024/02/15 06:14:06;;;;;;;2.67;2.20;;;;;;;;;;5045212;28;20627;-73
2024/02/15 06:16:34;;;;;;;5.60;2.30;;;;;;;;;;5048254;28;20637;-73
2024/02/15 06:19:01;;;;;;;2.40;2.20;;;;;;;;;;5047822;28;20681;-73
2024/02/15 06:21:29;;;;;;;2.73;2.50;;;;;;;;;;5041853;28;20639;-73
2024/02/15 06:23:56;;;;;;;2.57;2.37;;;;;;;;;;5038903;28;20734;-73
2024/02/15 06:26:23;;;;;;;7.40;2.70;;;;;;;;;;5046187;28;20634;-73
2024/02/15 06:39:51;;;;;;;2.50;2.30;;;;;;;;;;5044730;28;20639;-77
2024/02/15 06:42:19;;;;;;;4.20;2.70;;;;;;;;;;5044812;28;20713;-75
2024/02/15 06:44:49;;;;;;;2.70;2.50;;;8.40;99.90;;;;;;5041789;28;20631;-74
2024/02/15 06:47:17;;;;;;;3.30;2.93;;;;;;;;;;5043257;28;20641;-76
2024/02/15 06:49:44;;;;;;;2.20;2.00;;;;;;;;;;5046001;28;20742;-76
2024/02/15 06:52:13;;;;;;;3.20;2.90;;;;;;;;;;5052459;28;20725;-81
2024/02/15 06:54:40;;;;;;;3.37;2.80;;;;;;;;;;5052365;28;20635;-82
2024/02/15 06:57:07;;;;;;;2.43;2.23;;;;;;;;;;5048586;28;20682;-79
2024/02/15 06:59:37;;;;;;;4.10;2.80;;;;;;;;;;5053060;28;20632;-81
2024/02/15 07:02:05;;;;;;;2.60;2.40;;;;;;;;;;5055316;28;20636;-81
2024/02/15 07:04:33;;;;;;;3.37;2.63;;;;;;;;;;5049400;28;20637;-81
2024/02/15 07:07:01;;;;;;;2.63;2.43;;;;;;;;;;5055521;28;21428;-81
2024/02/15 07:09:29;;;;;;;2.67;2.40;;;;;;;;;;5056047;28;20733;-81
2024/02/15 07:11:56;;;;;;;3.40;3.10;;;;;;;;;;5052177;28;21057;-80
2024/02/15 07:14:23;;;;;;;11.33;7.83;;;;;;;;;;5056360;28;20725;-81
2024/02/15 07:16:51;;;;;;;12.60;4.50;;;;;;;;;;5053285;28;20650;-81
2024/02/15 07:19:20;;;;;;;3.80;3.43;;;8.10;99.90;;;;;;5046013;28;20712;-80
2024/02/15 07:21:47;;;;;;;3.00;2.80;;;8.20;99.90;;;;;;5046434;28;20623;-82
2024/02/15 07:24:14;;;;;;;4.60;2.93;;;;;;;;;;5045806;28;21207;-81
2024/02/15 07:26:41;;;;;;;3.40;3.10;;;8.30;99.90;;;;;;5046370;28;20634;-81
2024/02/15 07:29:09;;;;;;;5.57;3.97;;;8.40;99.90;;;;;;5039654;28;20742;-80
2024/02/15 07:31:36;;;;;;;7.10;3.20;;;8.60;99.90;;;;;;5044817;28;20693;-81
2024/02/15 07:34:04;;;;;;;3.00;2.70;;;8.70;99.90;;;;;;5045994;28;20656;-81
2024/02/15 07:36:33;;;;;;;3.33;3.03;;;8.90;99.90;;;;;;5046859;28;20993;-81
2024/02/15 07:39:00;;;;;;;5.50;2.93;;;8.90;99.90;;;;;;5046600;28;20726;-81
2024/02/15 07:41:27;;;;;;;4.73;3.07;;;;;;;;;;5045545;28;21006;-81
2024/02/15 07:43:55;;;;;;;2.97;2.67;;;9.10;99.90;;;;;;5050068;28;20705;-81
2024/02/15 07:46:24;;;;;;;3.07;2.77;;;9.30;99.90;;;;;;5050540;28;20651;-81
2024/02/15 07:48:51;;;;;;;3.10;2.80;;;;;;;;;;5050965;28;20644;-80
2024/02/15 07:51:19;;;;;;;2.60;2.40;;;9.50;99.90;;;;;;5050663;28;20621;-78
2024/02/15 07:53:48;;;;;;;4.10;2.80;;;;;;;;;;5043172;28;20636;-80
2024/02/15 07:56:16;;;;;;;3.83;2.60;;;9.50;99.90;;;;;;5041266;28;20644;-81
2024/02/15 07:58:46;;;;;;;3.07;2.33;;;;;;;;;;5037909;28;20670;-82
2024/02/15 08:01:13;;;;;;;2.23;2.13;;;;;;;;;;5045642;28;20751;-81
2024/02/15 08:03:44;;;;;;;2.50;2.27;;;;;;;;;;5044765;28;20642;-80
2024/02/15 08:06:12;;;;;;;4.97;3.00;;;;;;;;;;5050346;28;20634;-81
2024/02/15 08:08:41;;;;;;;3.17;2.80;;;;;;;;;;5050794;28;20638;-81
2024/02/15 08:11:14;;;;;;;3.30;2.60;;;10.70;99.90;;;;;;5050145;28;20622;-83
2024/02/15 08:13:41;;;;;;;3.57;2.67;;;;;;;;;;5049976;28;20672;-81
2024/02/15 08:16:09;;;;;;;3.60;2.63;;;10.40;99.90;;;;;;5050229;28;21160;-82
2024/02/15 08:18:36;;;;;;;2.93;2.50;;;;;;;;;;5045491;28;20727;-81
2024/02/15 08:21:04;;;;;;;6.93;3.20;;;10.20;99.90;;;;;;5044373;28;20626;-82
2024/02/15 08:23:32;;;;;;;2.70;2.50;;;10.70;99.90;;;;;;5044108;28;20646;-81
2024/02/15 08:25:59;;;;;;;4.00;2.53;;;;;;;;;;5049477;28;20784;-81
2024/02/15 08:28:28;;;;;;;2.30;1.90;;;10.70;99.90;;;;;;5050059;28;20630;-79
2024/02/15 08:30:55;;;;;;;2.80;2.33;;;10.90;99.90;;;;;;5050380;28;20672;-79
2024/02/15 08:33:23;;;;;;;3.03;2.20;;;11.00;99.90;;;;;;5048978;28;21263;-78
2024/02/15 08:35:50;;;;;;;3.67;2.10;;;11.10;99.90;;;;;;5041460;28;21238;-78
2024/02/15 08:38:18;;;;;;;2.27;2.03;;;;;;;;;;5049497;28;20676;-78
2024/02/15 08:40:45;;;;;;;2.03;1.93;;;;;;;;;;5049649;28;20638;-78
2024/02/15 08:43:13;;;;;;;2.70;1.90;;;;;;;;;;5049497;28;21262;-78
2024/02/15 08:45:41;;;;;;;2.63;2.13;;;11.10;99.90;;;;;;5049427;28;20627;-78
2024/02/15 08:48:09;;;;;;;2.60;2.07;;;;;;;;;;5049592;28;20626;-77
2024/02/15 08:50:36;;;;;;;3.73;1.80;;;11.00;99.90;;;;;;5049241;28;20637;-78
2024/02/15 08:53:06;;;;;;;2.77;2.43;;;10.40;99.90;;;;;;5046873;28;21120;-78
2024/02/15 08:55:35;;;;;;;3.30;2.30;;;11.00;99.90;;;;;;5047036;28;20635;-77
2024/02/15 08:58:03;;;;;;;10.13;4.00;;;11.10;99.90;;;;;;5049195;28;20646;-78
2024/02/15 09:00:31;;;;;;;6.27;4.80;;;11.40;99.90;;;;;;5049397;28;20654;-77
2024/02/15 09:02:59;;;;;;;3.97;3.63;;;11.10;99.90;;;;;;5048700;28;20635;-78
2024/02/15 09:05:26;;;;;;;4.50;3.93;;;;;;;;;;5048838;28;20652;-77
2024/02/15 09:07:53;;;;;;;2.90;2.70;;;11.00;99.90;;;;;;5049641;28;20742;-78
2024/02/15 09:10:22;;;;;;;4.23;3.10;;;11.40;99.90;;;;;;5049362;28;20635;-78
2024/02/15 09:12:49;;;;;;;3.40;2.47;;;;;;;;;;5048120;28;20637;-78
2024/02/15 09:15:16;;;;;;;2.73;2.13;;;;;;;;;;5049409;28;20650;-77
2024/02/15 09:17:45;;;;;;;7.80;2.80;;;;;;;;;;5049350;28;20858;-77
2024/02/15 09:20:15;;;;;;;3.53;2.90;;;11.60;99.90;;;;;;5049426;28;21011;-77
2024/02/15 09:22:43;;;;;;;2.77;2.57;;;11.60;99.90;;;;;;5045728;28;20639;-78
2024/02/15 09:25:10;;;;;;;5.00;3.43;;;11.80;99.90;;;;;;5046608;28;20750;-78
2024/02/15 09:27:37;;;;;;;9.83;3.20;;;;;;;;;;5042425;28;20642;-78
2024/02/15 09:30:07;;;;;;;4.97;3.10;;;11.80;99.90;;;;;;5048426;28;20619;-77
2024/02/15 09:32:35;;;;;;;4.07;2.80;;;;;;;;;;5048158;28;20634;-78
2024/02/15 09:35:02;;;;;;;6.60;3.37;;;;;;;;;;5048405;28;20622;-78
2024/02/15 09:37:33;;;;;;;3.40;2.47;;;;;;;;;;5048884;28;20737;-77
2024/02/15 09:40:04;;;;;;;3.83;3.17;;;12.10;99.90;;;;;;5047284;28;20691;-77
2024/02/15 09:42:34;;;;;;;3.20;3.00;;;12.20;99.90;;;;;;5048692;28;20639;-78
2024/02/15 09:45:01;;;;;;;6.80;3.67;;;12.20;99.90;;;;;;5047890;28;20630;-78
2024/02/15 09:47:34;;;;;;;5.73;3.17;;;12.20;99.90;;;;;;5048719;28;21115;-77
2024/02/15 09:50:02;;;;;;;5.87;2.77;;;;;;;;;;5047650;28;20749;-77
2024/02/15 09:52:35;;;;;;;3.20;2.60;;;12.30;99.90;;;;;;5039629;28;20978;-78
2024/02/15 09:55:04;;;;;;;3.07;2.77;;;12.30;99.90;;;;;;5048068;28;20671;-77
2024/02/15 09:57:31;;;;;;;4.27;2.47;;;12.40;99.90;;;;;;5048748;28;20713;-78
2024/02/15 09:59:58;;;;;;;3.10;2.23;;;12.50;99.90;;;;;;5047723;28;20776;-77
2024/02/15 10:02:26;;;;;;;3.13;2.60;;;12.50;99.70;;;;;;5047211;28;20646;-78
2024/02/15 10:04:56;;;;;;;2.50;2.30;;;12.50;99.20;;;;;;5046441;28;20741;-78
2024/02/15 10:07:23;;;;;;;2.43;2.23;;;12.60;98.90;;;;;;5039924;28;21027;-78
2024/02/15 10:09:51;;;;;;;2.23;2.03;;;12.50;99.10;;;;;;5048219;28;20740;-78
2024/02/15 10:12:20;;;;;;;2.37;2.20;;;12.50;99.30;;;;;;5048398;28;20633;-78
2024/02/15 10:14:50;;;;;;;2.53;2.30;;;12.60;99.30;;;;;;5047685;28;20758;-78
2024/02/15 10:17:19;;;;;;;2.27;2.07;;;12.70;98.80;;;;;;5043967;28;20631;-78
2024/02/15 10:20:03;;;;;;;3.10;2.37;;;12.70;98.50;;;;;;5042701;28;20676;-78
2024/02/15 10:22:29;;;;;;;6.10;1.97;;;12.80;98.70;;;;;;5048188;28;20637;-78
2024/02/15 10:25:12;;;;;;;2.60;1.93;;;12.90;98.10;;;;;;5046547;28;21080;-78
2024/02/15 10:27:39;;;;;;;1.80;1.70;;;12.90;97.00;;;;;;5041619;28;20637;-78
2024/02/15 10:30:16;;;;;;;1.33;1.23;;;12.90;97.60;;;;;;5047583;28;20627;-78
2024/02/15 10:32:43;;;;;;;1.43;1.30;;;12.90;97.40;;;;;;5047697;28;20649;-76
2024/02/15 10:35:15;;;;;;;1.90;1.70;;;13.00;97.20;;;;;;5047888;28;20637;-79
2024/02/15 10:37:42;;;;;;;2.77;1.30;;;13.00;97.10;;;;;;5047351;28;20639;-76
2024/02/15 10:40:13;;;;;;;1.83;1.33;;;12.90;96.80;;;;;;5046885;28;20673;-76
2024/02/15 10:42:43;;;;;;;1.70;1.00;;;13.00;96.90;;;;;;5047113;28;20640;-77
2024/02/15 10:45:11;;;;;;;1.40;1.30;;;13.10;96.80;;;;;;5047742;28;21054;-79
2024/02/15 10:47:39;;;;;;;1.90;1.63;;;13.20;96.70;;;;;;5047610;28;20728;-78
2024/02/15 10:50:07;;;;;;;1.20;1.10;;;13.30;96.20;;;;;;5045520;28;21304;-77
2024/02/15 10:52:45;;;;;;;1.53;1.23;;;13.40;96.00;;;;;;5040749;28;20666;-77
2024/02/15 10:55:19;;;;;;;2.77;1.73;;;13.40;95.30;;;;;;5047218;28;20992;-77
2024/02/15 10:57:50;;;;;;;1.20;1.10;;;13.50;99.90;;;;;;5047764;28;21215;-79
2024/02/15 11:00:21;;;;;;;2.10;2.00;;;13.30;99.90;;;;;;5047655;28;20673;-79
2024/02/15 11:02:57;;;;;;;1.53;1.43;;;13.30;96.20;;;;;;5046739;28;20734;-78
2024/02/15 11:05:24;;;;;;;4.30;4.00;;;13.50;99.90;;;;;;5046066;28;20737;-78
2024/02/15 11:07:54;;;;;;;1.53;1.23;;;;;;;;;;5047288;28;20736;-78
2024/02/15 11:10:22;;;;;;;4.10;2.10;;;13.30;99.90;;;;;;5047183;28;21229;-78
2024/02/15 11:12:49;;;;;;;4.97;1.30;;;;;;;;;;5042941;28;21193;-78
2024/02/15 11:15:48;;;;;;;1.17;1.17;;;13.50;95.90;;;;;;5046769;28;20622;-78
2024/02/15 11:18:45;;;;;;;1.80;1.60;;;13.60;95.30;;;;;;5049616;28;20996;-78
2024/02/15 11:21:12;;;;;;;2.13;1.70;;;13.40;99.90;;;;;;5048824;28;20990;-78
2024/02/15 11:23:39;;;;;;;2.23;1.50;;;;;;;;;;5041652;28;21187;-78
2024/02/15 11:26:31;;;;;;;2.97;1.57;;;13.60;95.80;;;;;;5047879;28;20733;-77
2024/02/15 11:28:58;;;;;;;1.73;1.30;;;;;;;;;;5051199;28;20634;-78
2024/02/15 11:31:54;;;;;;;2.10;1.47;;;13.60;98.10;;;;;;5051129;28;21247;-78
2024/02/15 11:34:46;;;;;;;7.30;1.30;;;13.90;96.40;;;;;;5049478;28;21571;-79
2024/02/15 11:37:51;;;;;;;4.57;2.13;;;13.40;99.90;;;;;;5045566;28;20638;-78
2024/02/15 11:40:25;;;;;;;3.07;1.70;;;13.80;96.50;;;;;;5049872;28;20679;-79
2024/02/15 11:43:04;;;;;;;0.93;0.93;;;13.80;96.40;;;;;;5050177;28;20752;-77
2024/02/15 11:45:33;;;;;;;2.10;1.23;;;;;;;;;;5051198;28;21163;-76
2024/02/15 11:48:01;;;;;;;2.63;1.50;;;;;;;;;;5050370;28;20870;-76
2024/02/15 11:50:29;;;;;;;1.50;1.40;;;14.20;95.90;;;;;;5050537;28;20643;-74
2024/02/15 11:53:09;;;;;;;1.60;1.50;;;14.10;96.80;;;;;;5049949;28;21000;-78
2024/02/15 11:55:36;;;;;;;4.27;1.97;;;;;;;;;;5049286;28;20637;-77
2024/02/15 11:58:17;;;;;;;5.30;1.40;;;14.30;95.90;;;;;;5045605;28;20627;-75
2024/02/15 12:20:14;;;;;;;0.97;0.90;;;14.70;93.90;;;;;;5049504;28;20816;-75
2024/02/15 12:22:43;;;;;;;1.97;0.80;;;14.80;93.40;;;;;;5049648;28;21246;-76
2024/02/15 12:25:16;;;;;;;2.67;2.47;;;14.80;92.40;;;;;;5049002;28;20634;-76
2024/02/15 12:27:43;;;;;;;1.90;1.00;;;14.80;93.10;;;;;;5049739;28;21247;-76
2024/02/15 12:30:20;;;;;;;1.20;0.80;;;15.00;92.50;;;;;;5049978;28;20861;-76
2024/02/15 12:32:47;;;;;;;7.00;1.20;;;14.80;93.20;;;;;;5049154;28;21489;-76
2024/02/15 12:35:16;;;;;;;1.13;0.90;;;14.90;93.10;;;;;;5050083;28;20951;-76
2024/02/15 12:37:43;;;;;;;2.20;1.27;;;14.90;92.70;;;;;;5049752;28;20996;-75
2024/02/15 12:40:16;;;;;;;1.40;0.83;;;15.00;92.80;;;;;;5049335;28;20686;-75
2024/02/15 12:42:44;;;;;;;1.43;0.90;;;15.00;92.80;;;;;;5049210;28;20634;-76
2024/02/15 12:45:20;;;;;;;2.30;1.20;;;15.10;93.40;;;;;;5049131;28;20622;-76
2024/02/15 12:47:49;;;;;;;2.20;1.20;;;15.20;92.70;;;;;;5049771;28;21240;-76
2024/02/15 12:50:17;;;;;;;2.27;0.70;;;15.40;92.30;;;;;;5049139;28;20728;-75
2024/02/15 12:52:47;;;;;;;1.70;0.97;;;15.30;92.30;;;;;;5049056;28;20721;-76
2024/02/15 12:55:16;;;;;;;1.30;1.20;;;15.40;92.10;;;;;;5037949;28;20631;-76
2024/02/15 12:57:45;;;;;;;1.10;0.77;;;15.40;91.80;;;;;;5048134;28;20630;-76
2024/02/15 13:00:17;;;;;;;0.70;0.70;;;15.50;91.20;;;;;;5047813;28;20665;-75
2024/02/15 13:02:48;;;;;;;2.23;1.07;;;15.60;91.10;;;;;;5047616;28;20634;-76
2024/02/15 13:05:15;;;;;;;1.50;0.77;;;15.60;91.10;;;;;;5049307;28;20630;-76
2024/02/15 13:07:42;;;;;;;1.20;0.87;;;15.70;91.50;;;;;;5049645;28;21019;-76
2024/02/15 13:10:10;;;;;;;1.10;1.00;;;15.70;91.70;;;;;;5049130;28;21052;-75
2024/02/15 13:12:37;;;;;;;0.80;0.70;;;15.60;91.70;;;;;;5038720;28;20630;-76
2024/02/15 13:15:06;;;;;;;2.70;1.30;;;15.50;92.30;;;;;;5043287;28;20631;-75
2024/02/15 13:17:34;;;;;;;2.70;1.10;;;15.80;91.50;;;;;;5045065;28;20676;-75
2024/02/15 13:20:04;;;;;;;1.90;1.33;;;15.70;91.80;;;;;;5044124;28;21305;-76
2024/02/15 13:22:32;;;;;;;1.90;1.07;;;15.60;91.90;;;;;;5049204;28;20658;-76
2024/02/15 13:24:59;;;;;;;1.40;1.07;;;15.60;92.60;;;;;;5047756;28;20635;-76
2024/02/15 13:27:26;;;;;;;0.80;0.80;;;15.60;91.90;;;;;;5048704;28;20642;-76
2024/02/15 13:29:53;;;;;;;2.40;1.10;;;15.70;91.30;;;;;;5048726;28;20730;-75
2024/02/15 13:32:21;;;;;;;2.47;1.30;;;15.70;91.50;;;;;;5047375;28;20635;-76
2024/02/15 13:34:51;;;;;;;1.90;1.17;;;15.70;92.30;;;;;;5048503;28;21189;-76
2024/02/15 13:37:21;;;;;;;3.30;1.93;;;15.70;92.20;;;;;;5049067;28;20633;-76
2024/02/15 13:39:51;;;;;;;1.60;1.10;;;15.90;91.60;;;;;;5046827;28;20678;-75
2024/02/15 13:42:17;;;;;;;2.50;0.90;;;15.80;91.80;;;;;;5048366;28;20639;-76
2024/02/15 13:44:45;;;;;;;2.43;1.27;;;15.80;92.20;;;;;;5048147;28;21026;-76
2024/02/15 13:47:12;;;;;;;1.20;0.97;;;15.80;92.20;;;;;;5048230;28;20630;-76
2024/02/15 13:49:39;;;;;;;2.90;1.30;;;15.80;92.10;;;;;;5048447;28;20645;-76
2024/02/15 13:52:06;;;;;;;2.50;1.17;;;15.90;91.90;;;;;;5047558;28;20635;-76
2024/02/15 13:54:34;;;;;;;1.80;1.27;;;15.70;92.10;;;;;;5039678;28;21035;-76
2024/02/15 13:57:02;;;;;;;1.30;1.03;;;15.80;91.90;;;;;;5045042;28;20637;-76
2024/02/15 13:59:29;;;;;;;1.80;1.10;;;15.90;91.40;;;;;;5048418;28;20666;-76
2024/02/15 14:01:56;;;;;;;1.67;1.30;;;15.80;92.60;;;;;;5048427;28;21152;-76